sensor_id;sensor_type;location;lat;lon;timestamp;P1;durP1;ratioP1;P2;durP2;ratioP2
74904;SDS011;63465;50.862;6.220;2023-01-28T00:01:07;8.13;;;5.40;;
74904;SDS011;63465;50.862;6.220;2023-01-28T00:03:35;6.23;;;5.03;;
74904;SDS011;63465;50.862;6.220;2023-01-28T00:06:02;9.40;;;5.80;;
74904;SDS011;63465;50.862;6.220;2023-01-28T00:08:30;10.00;;;6.47;;
74904;SDS011;63465;50.862;6.220;2023-01-28T00:10:58;9.60;;;6.47;;
74904;SDS011;63465;50.862;6.220;2023-01-28T00:13:27;10.70;;;6.30;;
74904;SDS011;63465;50.862;6.220;2023-01-28T00:15:54;12.80;;;6.97;;
74904;SDS011;63465;50.862;6.220;2023-01-28T00:18:22;8.63;;;6.57;;
74904;SDS011;63465;50.862;6.220;2023-01-28T00:20:56;10.27;;;6.70;;
74904;SDS011;63465;50.862;6.220;2023-01-28T00:23:23;9.90;;;6.23;;
74904;SDS011;63465;50.862;6.220;2023-01-28T00:25:51;10.50;;;6.50;;
74904;SDS011;63465;50.862;6.220;2023-01-28T00:28:18;14.87;;;7.60;;
74904;SDS011;63465;50.862;6.220;2023-01-28T00:30:46;9.90;;;6.57;;
74904;SDS011;63465;50.862;6.220;2023-01-28T00:33:13;10.07;;;6.57;;
74904;SDS011;63465;50.862;6.220;2023-01-28T00:35:40;10.90;;;6.17;;
74904;SDS011;63465;50.862;6.220;2023-01-28T00:38:07;8.20;;;6.00;;
74904;SDS011;63465;50.862;6.220;2023-01-28T00:40:33;12.50;;;5.90;;
74904;SDS011;63465;50.862;6.220;2023-01-28T00:43:01;9.23;;;6.00;;
74904;SDS011;63465;50.862;6.220;2023-01-28T00:45:28;11.90;;;6.60;;
74904;SDS011;63465;50.862;6.220;2023-01-28T00:47:56;8.70;;;6.27;;
74904;SDS011;63465;50.862;6.220;2023-01-28T00:50:23;10.50;;;7.00;;
74904;SDS011;63465;50.862;6.220;2023-01-28T00:52:51;8.57;;;6.13;;
74904;SDS011;63465;50.862;6.220;2023-01-28T00:55:18;9.77;;;6.13;;
74904;SDS011;63465;50.862;6.220;2023-01-28T00:57:46;9.03;;;6.57;;
74904;SDS011;63465;50.862;6.220;2023-01-28T01:00:13;10.63;;;6.13;;
74904;SDS011;63465;50.862;6.220;2023-01-28T01:02:41;8.40;;;5.20;;
74904;SDS011;63465;50.862;6.220;2023-01-28T01:05:09;8.20;;;5.80;;
74904;SDS011;63465;50.862;6.220;2023-01-28T01:07:35;7.80;;;5.87;;
74904;SDS011;63465;50.862;6.220;2023-01-28T01:10:07;7.10;;;5.30;;
74904;SDS011;63465;50.862;6.220;2023-01-28T01:12:36;9.43;;;6.67;;
74904;SDS011;63465;50.862;6.220;2023-01-28T01:15:03;9.80;;;6.70;;
74904;SDS011;63465;50.862;6.220;2023-01-28T01:17:34;11.60;;;6.23;;
74904;SDS011;63465;50.862;6.220;2023-01-28T01:20:05;11.30;;;5.80;;
74904;SDS011;63465;50.862;6.220;2023-01-28T01:22:35;8.73;;;5.77;;
74904;SDS011;63465;50.862;6.220;2023-01-28T01:25:02;11.93;;;7.07;;
74904;SDS011;63465;50.862;6.220;2023-01-28T01:27:30;8.67;;;5.90;;
74904;SDS011;63465;50.862;6.220;2023-01-28T01:29:57;10.53;;;6.27;;
74904;SDS011;63465;50.862;6.220;2023-01-28T01:32:28;8.43;;;6.00;;
74904;SDS011;63465;50.862;6.220;2023-01-28T01:34:55;8.93;;;5.53;;
74904;SDS011;63465;50.862;6.220;2023-01-28T01:37:23;9.60;;;5.87;;
74904;SDS011;63465;50.862;6.220;2023-01-28T01:39:51;8.90;;;5.93;;
74904;SDS011;63465;50.862;6.220;2023-01-28T01:42:19;8.73;;;6.10;;
74904;SDS011;63465;50.862;6.220;2023-01-28T01:44:53;9.10;;;6.07;;
74904;SDS011;63465;50.862;6.220;2023-01-28T01:47:23;8.00;;;5.60;;
74904;SDS011;63465;50.862;6.220;2023-01-28T01:49:53;8.73;;;6.30;;
74904;SDS011;63465;50.862;6.220;2023-01-28T01:52:21;8.40;;;5.47;;
74904;SDS011;63465;50.862;6.220;2023-01-28T01:54:55;10.13;;;5.70;;
74904;SDS011;63465;50.862;6.220;2023-01-28T01:57:25;12.60;;;5.80;;
74904;SDS011;63465;50.862;6.220;2023-01-28T01:59:57;9.43;;;5.40;;
74904;SDS011;63465;50.862;6.220;2023-01-28T02:02:39;6.60;;;4.80;;
74904;SDS011;63465;50.862;6.220;2023-01-28T02:05:10;8.67;;;5.50;;
74904;SDS011;63465;50.862;6.220;2023-01-28T02:07:38;6.23;;;5.20;;
74904;SDS011;63465;50.862;6.220;2023-01-28T02:10:08;8.70;;;5.47;;
74904;SDS011;63465;50.862;6.220;2023-01-28T02:12:37;6.93;;;5.47;;
74904;SDS011;63465;50.862;6.220;2023-01-28T02:15:08;8.40;;;6.07;;
74904;SDS011;63465;50.862;6.220;2023-01-28T02:17:37;7.60;;;5.13;;
74904;SDS011;63465;50.862;6.220;2023-01-28T02:20:05;7.53;;;5.47;;
74904;SDS011;63465;50.862;6.220;2023-01-28T02:28:48;8.73;;;5.53;;
74904;SDS011;63465;50.862;6.220;2023-01-28T02:31:21;9.57;;;6.10;;
74904;SDS011;63465;50.862;6.220;2023-01-28T02:33:51;16.60;;;7.23;;
74904;SDS011;63465;50.862;6.220;2023-01-28T02:36:27;11.40;;;6.80;;
74904;SDS011;63465;50.862;6.220;2023-01-28T02:39:00;11.83;;;6.60;;
74904;SDS011;63465;50.862;6.220;2023-01-28T02:41:35;15.20;;;7.40;;
74904;SDS011;63465;50.862;6.220;2023-01-28T02:44:08;18.40;;;8.80;;
74904;SDS011;63465;50.862;6.220;2023-01-28T02:46:35;13.23;;;7.37;;
74904;SDS011;63465;50.862;6.220;2023-01-28T02:49:22;13.40;;;8.77;;
74904;SDS011;63465;50.862;6.220;2023-01-28T02:51:58;16.10;;;7.73;;
74904;SDS011;63465;50.862;6.220;2023-01-28T02:54:34;11.90;;;7.47;;
74904;SDS011;63465;50.862;6.220;2023-01-28T02:57:09;10.70;;;7.10;;
74904;SDS011;63465;50.862;6.220;2023-01-28T02:59:48;11.90;;;7.20;;
74904;SDS011;63465;50.862;6.220;2023-01-28T03:02:22;16.10;;;8.10;;
74904;SDS011;63465;50.862;6.220;2023-01-28T03:08:30;13.37;;;7.93;;
74904;SDS011;63465;50.862;6.220;2023-01-28T03:11:18;15.67;;;8.50;;
74904;SDS011;63465;50.862;6.220;2023-01-28T03:14:03;15.23;;;9.00;;
74904;SDS011;63465;50.862;6.220;2023-01-28T03:16:50;15.67;;;8.90;;
74904;SDS011;63465;50.862;6.220;2023-01-28T03:19:37;16.53;;;8.90;;
74904;SDS011;63465;50.862;6.220;2023-01-28T03:22:22;14.57;;;8.50;;
74904;SDS011;63465;50.862;6.220;2023-01-28T03:25:08;16.70;;;9.23;;
74904;SDS011;63465;50.862;6.220;2023-01-28T03:28:03;15.57;;;9.30;;
74904;SDS011;63465;50.862;6.220;2023-01-28T03:30:52;15.80;;;9.00;;
74904;SDS011;63465;50.862;6.220;2023-01-28T03:33:50;16.67;;;9.70;;
74904;SDS011;63465;50.862;6.220;2023-01-28T03:36:36;19.00;;;10.57;;
74904;SDS011;63465;50.862;6.220;2023-01-28T03:39:38;17.50;;;10.30;;
74904;SDS011;63465;50.862;6.220;2023-01-28T03:42:08;20.67;;;10.93;;
74904;SDS011;63465;50.862;6.220;2023-01-28T03:44:44;17.67;;;10.63;;
74904;SDS011;63465;50.862;6.220;2023-01-28T03:47:18;21.47;;;11.23;;
74904;SDS011;63465;50.862;6.220;2023-01-28T03:49:48;22.67;;;10.73;;
74904;SDS011;63465;50.862;6.220;2023-01-28T03:52:19;20.20;;;10.73;;
74904;SDS011;63465;50.862;6.220;2023-01-28T03:54:48;22.37;;;11.80;;
74904;SDS011;63465;50.862;6.220;2023-01-28T03:57:16;21.17;;;11.27;;
74904;SDS011;63465;50.862;6.220;2023-01-28T03:59:44;17.70;;;10.87;;
74904;SDS011;63465;50.862;6.220;2023-01-28T04:02:14;23.70;;;11.40;;
74904;SDS011;63465;50.862;6.220;2023-01-28T04:04:41;20.70;;;12.30;;
74904;SDS011;63465;50.862;6.220;2023-01-28T04:07:10;23.20;;;11.20;;
74904;SDS011;63465;50.862;6.220;2023-01-28T04:09:58;21.47;;;11.60;;
74904;SDS011;63465;50.862;6.220;2023-01-28T04:12:37;22.37;;;11.93;;
74904;SDS011;63465;50.862;6.220;2023-01-28T04:15:04;22.07;;;11.83;;
74904;SDS011;63465;50.862;6.220;2023-01-28T04:17:43;22.47;;;13.10;;
74904;SDS011;63465;50.862;6.220;2023-01-28T04:20:12;22.77;;;12.50;;
74904;SDS011;63465;50.862;6.220;2023-01-28T04:22:42;21.67;;;12.50;;
74904;SDS011;63465;50.862;6.220;2023-01-28T04:25:10;25.30;;;13.30;;
74904;SDS011;63465;50.862;6.220;2023-01-28T04:27:36;23.30;;;12.00;;
74904;SDS011;63465;50.862;6.220;2023-01-28T04:30:13;22.40;;;12.93;;
74904;SDS011;63465;50.862;6.220;2023-01-28T04:35:28;29.53;;;12.90;;
74904;SDS011;63465;50.862;6.220;2023-01-28T04:38:07;23.83;;;13.10;;
74904;SDS011;63465;50.862;6.220;2023-01-28T04:40:43;23.27;;;12.20;;
74904;SDS011;63465;50.862;6.220;2023-01-28T04:43:22;24.13;;;13.20;;
74904;SDS011;63465;50.862;6.220;2023-01-28T04:45:52;23.77;;;13.73;;
74904;SDS011;63465;50.862;6.220;2023-01-28T04:48:39;31.30;;;15.43;;
74904;SDS011;63465;50.862;6.220;2023-01-28T04:51:20;27.43;;;14.13;;
74904;SDS011;63465;50.862;6.220;2023-01-28T04:54:07;27.07;;;13.93;;
74904;SDS011;63465;50.862;6.220;2023-01-28T04:56:34;26.30;;;13.47;;
74904;SDS011;63465;50.862;6.220;2023-01-28T04:59:02;33.20;;;15.17;;
74904;SDS011;63465;50.862;6.220;2023-01-28T05:01:30;23.67;;;13.87;;
74904;SDS011;63465;50.862;6.220;2023-01-28T05:03:58;23.97;;;14.13;;
74904;SDS011;63465;50.862;6.220;2023-01-28T05:06:29;26.67;;;14.20;;
74904;SDS011;63465;50.862;6.220;2023-01-28T05:09:00;25.53;;;13.17;;
74904;SDS011;63465;50.862;6.220;2023-01-28T05:11:29;26.10;;;12.67;;
74904;SDS011;63465;50.862;6.220;2023-01-28T05:14:00;31.10;;;13.33;;
74904;SDS011;63465;50.862;6.220;2023-01-28T05:16:33;19.70;;;11.80;;
74904;SDS011;63465;50.862;6.220;2023-01-28T05:19:01;19.13;;;11.70;;
74904;SDS011;63465;50.862;6.220;2023-01-28T05:21:33;24.20;;;12.53;;
74904;SDS011;63465;50.862;6.220;2023-01-28T05:24:04;18.43;;;10.80;;
74904;SDS011;63465;50.862;6.220;2023-01-28T05:26:33;19.57;;;11.07;;
74904;SDS011;63465;50.862;6.220;2023-01-28T05:29:01;19.50;;;10.10;;
74904;SDS011;63465;50.862;6.220;2023-01-28T05:31:28;20.67;;;11.00;;
74904;SDS011;63465;50.862;6.220;2023-01-28T05:33:55;25.33;;;11.10;;
74904;SDS011;63465;50.862;6.220;2023-01-28T05:36:22;27.03;;;11.53;;
74904;SDS011;63465;50.862;6.220;2023-01-28T05:38:49;18.93;;;10.20;;
74904;SDS011;63465;50.862;6.220;2023-01-28T05:41:15;16.67;;;10.40;;
74904;SDS011;63465;50.862;6.220;2023-01-28T05:43:46;20.80;;;11.53;;
74904;SDS011;63465;50.862;6.220;2023-01-28T05:46:27;21.63;;;11.67;;
74904;SDS011;63465;50.862;6.220;2023-01-28T05:49:01;20.30;;;10.73;;
74904;SDS011;63465;50.862;6.220;2023-01-28T05:51:48;18.50;;;10.70;;
74904;SDS011;63465;50.862;6.220;2023-01-28T05:54:18;21.90;;;11.13;;
74904;SDS011;63465;50.862;6.220;2023-01-28T05:56:45;20.53;;;10.93;;
74904;SDS011;63465;50.862;6.220;2023-01-28T05:59:14;22.40;;;12.33;;
74904;SDS011;63465;50.862;6.220;2023-01-28T06:01:42;21.33;;;12.00;;
74904;SDS011;63465;50.862;6.220;2023-01-28T06:04:09;20.47;;;11.10;;
74904;SDS011;63465;50.862;6.220;2023-01-28T06:06:35;26.80;;;11.97;;
74904;SDS011;63465;50.862;6.220;2023-01-28T06:09:04;18.40;;;11.20;;
74904;SDS011;63465;50.862;6.220;2023-01-28T06:11:30;19.17;;;10.57;;
74904;SDS011;63465;50.862;6.220;2023-01-28T06:14:01;21.20;;;10.87;;
74904;SDS011;63465;50.862;6.220;2023-01-28T06:16:46;22.90;;;11.47;;
74904;SDS011;63465;50.862;6.220;2023-01-28T06:19:24;19.40;;;11.67;;
74904;SDS011;63465;50.862;6.220;2023-01-28T06:21:51;18.40;;;11.83;;
74904;SDS011;63465;50.862;6.220;2023-01-28T06:24:19;21.73;;;11.70;;
74904;SDS011;63465;50.862;6.220;2023-01-28T06:26:46;23.70;;;12.40;;
74904;SDS011;63465;50.862;6.220;2023-01-28T06:29:13;21.10;;;11.90;;
74904;SDS011;63465;50.862;6.220;2023-01-28T06:31:39;23.27;;;12.00;;
74904;SDS011;63465;50.862;6.220;2023-01-28T06:34:08;21.13;;;12.20;;
74904;SDS011;63465;50.862;6.220;2023-01-28T06:36:35;26.20;;;13.03;;
74904;SDS011;63465;50.862;6.220;2023-01-28T06:39:03;21.93;;;12.43;;
74904;SDS011;63465;50.862;6.220;2023-01-28T06:41:30;19.63;;;11.53;;
74904;SDS011;63465;50.862;6.220;2023-01-28T06:43:56;22.77;;;11.97;;
74904;SDS011;63465;50.862;6.220;2023-01-28T06:46:23;26.17;;;12.80;;
74904;SDS011;63465;50.862;6.220;2023-01-28T06:48:50;21.07;;;12.37;;
74904;SDS011;63465;50.862;6.220;2023-01-28T06:51:18;22.50;;;11.83;;
74904;SDS011;63465;50.862;6.220;2023-01-28T06:53:45;20.77;;;12.60;;
74904;SDS011;63465;50.862;6.220;2023-01-28T06:56:11;30.90;;;13.23;;
74904;SDS011;63465;50.862;6.220;2023-01-28T06:58:38;24.13;;;12.60;;
74904;SDS011;63465;50.862;6.220;2023-01-28T07:01:05;24.13;;;11.80;;
74904;SDS011;63465;50.862;6.220;2023-01-28T07:03:32;21.37;;;11.50;;
74904;SDS011;63465;50.862;6.220;2023-01-28T07:05:59;22.03;;;11.27;;
74904;SDS011;63465;50.862;6.220;2023-01-28T07:08:27;39.27;;;19.53;;
74904;SDS011;63465;50.862;6.220;2023-01-28T07:10:54;113.77;;;48.27;;
74904;SDS011;63465;50.862;6.220;2023-01-28T07:13:20;26.20;;;13.07;;
74904;SDS011;63465;50.862;6.220;2023-01-28T07:15:47;40.10;;;18.60;;
74904;SDS011;63465;50.862;6.220;2023-01-28T07:18:14;44.00;;;23.27;;
74904;SDS011;63465;50.862;6.220;2023-01-28T07:20:41;44.87;;;23.43;;
74904;SDS011;63465;50.862;6.220;2023-01-28T07:23:08;33.17;;;16.23;;
74904;SDS011;63465;50.862;6.220;2023-01-28T07:25:36;48.30;;;24.83;;
74904;SDS011;63465;50.862;6.220;2023-01-28T07:28:03;57.53;;;29.63;;
74904;SDS011;63465;50.862;6.220;2023-01-28T07:30:30;20.33;;;12.53;;
74904;SDS011;63465;50.862;6.220;2023-01-28T07:32:57;22.03;;;13.67;;
74904;SDS011;63465;50.862;6.220;2023-01-28T07:35:24;20.90;;;12.00;;
74904;SDS011;63465;50.862;6.220;2023-01-28T07:37:52;18.07;;;10.00;;
74904;SDS011;63465;50.862;6.220;2023-01-28T07:40:19;16.60;;;10.20;;
74904;SDS011;63465;50.862;6.220;2023-01-28T07:42:48;18.17;;;10.17;;
74904;SDS011;63465;50.862;6.220;2023-01-28T07:45:15;16.83;;;8.90;;
74904;SDS011;63465;50.862;6.220;2023-01-28T07:47:42;14.27;;;8.43;;
74904;SDS011;63465;50.862;6.220;2023-01-28T07:50:09;16.23;;;9.30;;
74904;SDS011;63465;50.862;6.220;2023-01-28T07:52:36;19.03;;;9.73;;
74904;SDS011;63465;50.862;6.220;2023-01-28T07:55:09;16.53;;;9.53;;
74904;SDS011;63465;50.862;6.220;2023-01-28T07:57:46;14.60;;;9.20;;
74904;SDS011;63465;50.862;6.220;2023-01-28T08:00:15;18.70;;;10.10;;
74904;SDS011;63465;50.862;6.220;2023-01-28T08:02:43;38.83;;;19.10;;
74904;SDS011;63465;50.862;6.220;2023-01-28T08:05:13;71.47;;;32.97;;
74904;SDS011;63465;50.862;6.220;2023-01-28T08:07:41;48.17;;;20.80;;
74904;SDS011;63465;50.862;6.220;2023-01-28T08:10:08;19.70;;;11.07;;
74904;SDS011;63465;50.862;6.220;2023-01-28T08:12:35;21.47;;;11.93;;
74904;SDS011;63465;50.862;6.220;2023-01-28T08:15:04;22.50;;;12.63;;
74904;SDS011;63465;50.862;6.220;2023-01-28T08:17:32;23.17;;;12.63;;
74904;SDS011;63465;50.862;6.220;2023-01-28T08:19:58;29.67;;;16.87;;
74904;SDS011;63465;50.862;6.220;2023-01-28T08:22:25;23.80;;;14.40;;
74904;SDS011;63465;50.862;6.220;2023-01-28T08:24:52;24.70;;;13.77;;
74904;SDS011;63465;50.862;6.220;2023-01-28T08:27:19;28.87;;;14.60;;
74904;SDS011;63465;50.862;6.220;2023-01-28T08:29:46;20.27;;;11.20;;
74904;SDS011;63465;50.862;6.220;2023-01-28T08:32:14;19.53;;;11.50;;
74904;SDS011;63465;50.862;6.220;2023-01-28T08:34:40;17.30;;;10.53;;
74904;SDS011;63465;50.862;6.220;2023-01-28T08:37:07;29.67;;;14.20;;
74904;SDS011;63465;50.862;6.220;2023-01-28T08:39:34;19.30;;;11.00;;
74904;SDS011;63465;50.862;6.220;2023-01-28T08:42:00;18.80;;;10.93;;
74904;SDS011;63465;50.862;6.220;2023-01-28T08:44:27;19.83;;;11.00;;
74904;SDS011;63465;50.862;6.220;2023-01-28T08:46:54;24.43;;;11.23;;
74904;SDS011;63465;50.862;6.220;2023-01-28T08:49:22;20.10;;;12.20;;
74904;SDS011;63465;50.862;6.220;2023-01-28T08:51:48;21.87;;;11.00;;
74904;SDS011;63465;50.862;6.220;2023-01-28T08:54:15;23.60;;;11.87;;
74904;SDS011;63465;50.862;6.220;2023-01-28T08:56:42;18.40;;;10.67;;
74904;SDS011;63465;50.862;6.220;2023-01-28T08:59:09;20.10;;;10.50;;
74904;SDS011;63465;50.862;6.220;2023-01-28T09:01:35;20.10;;;10.03;;
74904;SDS011;63465;50.862;6.220;2023-01-28T09:04:02;20.60;;;11.10;;
74904;SDS011;63465;50.862;6.220;2023-01-28T09:06:30;17.73;;;10.10;;
74904;SDS011;63465;50.862;6.220;2023-01-28T09:08:57;20.43;;;11.90;;
74904;SDS011;63465;50.862;6.220;2023-01-28T09:11:24;17.70;;;11.23;;
74904;SDS011;63465;50.862;6.220;2023-01-28T09:13:51;23.03;;;12.77;;
74904;SDS011;63465;50.862;6.220;2023-01-28T09:16:18;20.13;;;11.43;;
74904;SDS011;63465;50.862;6.220;2023-01-28T09:18:46;17.97;;;10.20;;
74904;SDS011;63465;50.862;6.220;2023-01-28T09:21:13;18.23;;;10.57;;
74904;SDS011;63465;50.862;6.220;2023-01-28T09:23:41;21.27;;;11.87;;
74904;SDS011;63465;50.862;6.220;2023-01-28T09:26:09;19.97;;;10.67;;
74904;SDS011;63465;50.862;6.220;2023-01-28T09:28:36;19.40;;;10.50;;
74904;SDS011;63465;50.862;6.220;2023-01-28T09:31:05;22.87;;;12.87;;
74904;SDS011;63465;50.862;6.220;2023-01-28T09:33:33;20.33;;;12.70;;
74904;SDS011;63465;50.862;6.220;2023-01-28T09:36:01;20.10;;;12.20;;
74904;SDS011;63465;50.862;6.220;2023-01-28T09:38:30;24.27;;;11.80;;
74904;SDS011;63465;50.862;6.220;2023-01-28T09:41:00;21.23;;;11.23;;
74904;SDS011;63465;50.862;6.220;2023-01-28T09:43:42;19.63;;;12.00;;
74904;SDS011;63465;50.862;6.220;2023-01-28T09:46:21;21.70;;;11.37;;
74904;SDS011;63465;50.862;6.220;2023-01-28T09:48:56;22.50;;;14.17;;
74904;SDS011;63465;50.862;6.220;2023-01-28T09:51:28;24.37;;;14.30;;
74904;SDS011;63465;50.862;6.220;2023-01-28T09:53:59;27.87;;;16.00;;
74904;SDS011;63465;50.862;6.220;2023-01-28T09:56:34;19.50;;;11.70;;
74904;SDS011;63465;50.862;6.220;2023-01-28T09:59:13;16.73;;;11.50;;
74904;SDS011;63465;50.862;6.220;2023-01-28T10:01:45;21.20;;;12.10;;
74904;SDS011;63465;50.862;6.220;2023-01-28T10:04:20;20.10;;;12.43;;
74904;SDS011;63465;50.862;6.220;2023-01-28T10:06:57;23.03;;;11.27;;
74904;SDS011;63465;50.862;6.220;2023-01-28T10:09:37;47.17;;;25.80;;
74904;SDS011;63465;50.862;6.220;2023-01-28T10:12:15;21.50;;;13.00;;
74904;SDS011;63465;50.862;6.220;2023-01-28T10:14:56;22.23;;;12.23;;
74904;SDS011;63465;50.862;6.220;2023-01-28T10:17:36;20.90;;;11.77;;
74904;SDS011;63465;50.862;6.220;2023-01-28T10:20:07;20.43;;;11.17;;
74904;SDS011;63465;50.862;6.220;2023-01-28T10:22:45;20.73;;;11.90;;
74904;SDS011;63465;50.862;6.220;2023-01-28T10:25:17;22.87;;;12.20;;
74904;SDS011;63465;50.862;6.220;2023-01-28T10:27:47;20.50;;;11.63;;
74904;SDS011;63465;50.862;6.220;2023-01-28T10:30:15;20.23;;;11.23;;
74904;SDS011;63465;50.862;6.220;2023-01-28T10:32:45;25.73;;;12.47;;
74904;SDS011;63465;50.862;6.220;2023-01-28T10:35:17;19.47;;;11.00;;
74904;SDS011;63465;50.862;6.220;2023-01-28T10:37:43;18.17;;;10.53;;
74904;SDS011;63465;50.862;6.220;2023-01-28T10:40:12;20.90;;;11.90;;
74904;SDS011;63465;50.862;6.220;2023-01-28T10:42:40;15.40;;;9.40;;
74904;SDS011;63465;50.862;6.220;2023-01-28T10:45:12;19.30;;;10.87;;
74904;SDS011;63465;50.862;6.220;2023-01-28T10:47:43;20.57;;;11.47;;
74904;SDS011;63465;50.862;6.220;2023-01-28T10:50:14;22.20;;;11.50;;
74904;SDS011;63465;50.862;6.220;2023-01-28T10:52:53;19.40;;;10.50;;
74904;SDS011;63465;50.862;6.220;2023-01-28T10:55:20;22.83;;;11.80;;
74904;SDS011;63465;50.862;6.220;2023-01-28T10:57:49;22.30;;;11.20;;
74904;SDS011;63465;50.862;6.220;2023-01-28T11:00:22;27.40;;;11.60;;
74904;SDS011;63465;50.862;6.220;2023-01-28T11:02:51;20.97;;;11.40;;
74904;SDS011;63465;50.862;6.220;2023-01-28T11:05:20;22.80;;;12.50;;
74904;SDS011;63465;50.862;6.220;2023-01-28T11:07:49;24.80;;;12.73;;
74904;SDS011;63465;50.862;6.220;2023-01-28T11:10:28;22.90;;;13.40;;
74904;SDS011;63465;50.862;6.220;2023-01-28T11:12:58;21.27;;;11.83;;
74904;SDS011;63465;50.862;6.220;2023-01-28T11:15:27;21.83;;;11.90;;
74904;SDS011;63465;50.862;6.220;2023-01-28T11:17:55;21.43;;;10.93;;
74904;SDS011;63465;50.862;6.220;2023-01-28T11:20:25;23.90;;;11.93;;
74904;SDS011;63465;50.862;6.220;2023-01-28T11:22:53;23.10;;;12.17;;
74904;SDS011;63465;50.862;6.220;2023-01-28T11:25:23;22.10;;;11.70;;
74904;SDS011;63465;50.862;6.220;2023-01-28T11:27:55;25.40;;;13.40;;
74904;SDS011;63465;50.862;6.220;2023-01-28T11:30:24;23.77;;;11.40;;
74904;SDS011;63465;50.862;6.220;2023-01-28T11:32:57;26.03;;;12.87;;
74904;SDS011;63465;50.862;6.220;2023-01-28T11:35:29;25.63;;;13.00;;
74904;SDS011;63465;50.862;6.220;2023-01-28T11:37:56;22.73;;;12.30;;
74904;SDS011;63465;50.862;6.220;2023-01-28T11:40:24;21.47;;;12.63;;
74904;SDS011;63465;50.862;6.220;2023-01-28T11:42:51;24.47;;;12.00;;
74904;SDS011;63465;50.862;6.220;2023-01-28T11:45:23;23.60;;;12.60;;
74904;SDS011;63465;50.862;6.220;2023-01-28T11:48:04;23.83;;;12.70;;
74904;SDS011;63465;50.862;6.220;2023-01-28T11:50:42;27.10;;;12.63;;
74904;SDS011;63465;50.862;6.220;2023-01-28T11:53:20;25.30;;;13.03;;
74904;SDS011;63465;50.862;6.220;2023-01-28T11:56:08;27.03;;;12.97;;
74904;SDS011;63465;50.862;6.220;2023-01-28T11:58:45;23.03;;;11.10;;
74904;SDS011;63465;50.862;6.220;2023-01-28T12:01:20;25.20;;;11.47;;
74904;SDS011;63465;50.862;6.220;2023-01-28T12:04:08;22.77;;;12.30;;
74904;SDS011;63465;50.862;6.220;2023-01-28T12:06:52;19.97;;;11.23;;
74904;SDS011;63465;50.862;6.220;2023-01-28T12:09:28;21.00;;;10.93;;
74904;SDS011;63465;50.862;6.220;2023-01-28T12:12:12;19.70;;;10.10;;
74904;SDS011;63465;50.862;6.220;2023-01-28T12:14:59;24.13;;;10.90;;
74904;SDS011;63465;50.862;6.220;2023-01-28T12:17:38;23.40;;;10.90;;
74904;SDS011;63465;50.862;6.220;2023-01-28T12:20:14;25.33;;;13.10;;
74904;SDS011;63465;50.862;6.220;2023-01-28T12:22:50;22.37;;;11.07;;
74904;SDS011;63465;50.862;6.220;2023-01-28T12:25:49;21.37;;;11.00;;
74904;SDS011;63465;50.862;6.220;2023-01-28T12:28:27;18.63;;;9.87;;
74904;SDS011;63465;50.862;6.220;2023-01-28T12:31:03;24.73;;;12.77;;
74904;SDS011;63465;50.862;6.220;2023-01-28T12:33:40;49.87;;;23.73;;
74904;SDS011;63465;50.862;6.220;2023-01-28T12:36:32;65.37;;;29.83;;
74904;SDS011;63465;50.862;6.220;2023-01-28T12:39:11;39.17;;;16.93;;
74904;SDS011;63465;50.862;6.220;2023-01-28T12:41:49;40.63;;;20.47;;
74904;SDS011;63465;50.862;6.220;2023-01-28T12:44:25;24.40;;;12.93;;
74904;SDS011;63465;50.862;6.220;2023-01-28T12:46:57;22.40;;;11.20;;
74904;SDS011;63465;50.862;6.220;2023-01-28T12:49:28;35.10;;;19.63;;
74904;SDS011;63465;50.862;6.220;2023-01-28T12:52:00;31.13;;;14.80;;
74904;SDS011;63465;50.862;6.220;2023-01-28T12:54:32;48.60;;;25.33;;
74904;SDS011;63465;50.862;6.220;2023-01-28T12:57:04;30.90;;;16.90;;
74904;SDS011;63465;50.862;6.220;2023-01-28T12:59:36;22.23;;;11.00;;
74904;SDS011;63465;50.862;6.220;2023-01-28T13:02:14;19.90;;;10.27;;
74904;SDS011;63465;50.862;6.220;2023-01-28T13:04:49;23.27;;;12.70;;
74904;SDS011;63465;50.862;6.220;2023-01-28T13:07:22;18.23;;;10.20;;
74904;SDS011;63465;50.862;6.220;2023-01-28T13:09:57;24.27;;;11.67;;
74904;SDS011;63465;50.862;6.220;2023-01-28T13:12:28;22.63;;;11.47;;
74904;SDS011;63465;50.862;6.220;2023-01-28T13:14:57;23.87;;;10.90;;
74904;SDS011;63465;50.862;6.220;2023-01-28T13:17:25;26.47;;;12.50;;
74904;SDS011;63465;50.862;6.220;2023-01-28T13:19:53;20.77;;;10.43;;
74904;SDS011;63465;50.862;6.220;2023-01-28T13:22:29;23.40;;;11.60;;
74904;SDS011;63465;50.862;6.220;2023-01-28T13:25:10;19.50;;;10.67;;
74904;SDS011;63465;50.862;6.220;2023-01-28T13:27:38;20.80;;;10.80;;
74904;SDS011;63465;50.862;6.220;2023-01-28T13:30:17;21.10;;;11.33;;
74904;SDS011;63465;50.862;6.220;2023-01-28T13:32:53;22.50;;;10.60;;
74904;SDS011;63465;50.862;6.220;2023-01-28T13:35:27;22.43;;;11.00;;
74904;SDS011;63465;50.862;6.220;2023-01-28T13:37:58;25.30;;;12.87;;
74904;SDS011;63465;50.862;6.220;2023-01-28T13:40:32;28.70;;;12.83;;
74904;SDS011;63465;50.862;6.220;2023-01-28T13:43:00;28.93;;;13.57;;
74904;SDS011;63465;50.862;6.220;2023-01-28T13:45:29;26.20;;;12.73;;
74904;SDS011;63465;50.862;6.220;2023-01-28T13:47:59;20.33;;;11.90;;
74904;SDS011;63465;50.862;6.220;2023-01-28T13:50:32;29.53;;;15.20;;
74904;SDS011;63465;50.862;6.220;2023-01-28T13:53:06;21.27;;;12.47;;
74904;SDS011;63465;50.862;6.220;2023-01-28T13:55:45;21.40;;;11.23;;
74904;SDS011;63465;50.862;6.220;2023-01-28T13:58:27;24.83;;;13.43;;
74904;SDS011;63465;50.862;6.220;2023-01-28T14:01:39;23.90;;;12.23;;
74904;SDS011;63465;50.862;6.220;2023-01-28T14:04:50;22.00;;;12.60;;
74904;SDS011;63465;50.862;6.220;2023-01-28T14:07:39;23.10;;;12.43;;
74904;SDS011;63465;50.862;6.220;2023-01-28T14:10:30;22.17;;;12.30;;
74904;SDS011;63465;50.862;6.220;2023-01-28T14:16:18;21.67;;;11.93;;
74904;SDS011;63465;50.862;6.220;2023-01-28T14:18:51;29.30;;;14.33;;
74904;SDS011;63465;50.862;6.220;2023-01-28T14:21:20;25.10;;;12.73;;
74904;SDS011;63465;50.862;6.220;2023-01-28T14:23:48;25.23;;;13.87;;
74904;SDS011;63465;50.862;6.220;2023-01-28T14:26:25;22.53;;;11.47;;
74904;SDS011;63465;50.862;6.220;2023-01-28T14:29:01;31.27;;;15.67;;
74904;SDS011;63465;50.862;6.220;2023-01-28T14:31:38;28.43;;;13.03;;
74904;SDS011;63465;50.862;6.220;2023-01-28T14:34:08;21.90;;;12.80;;
74904;SDS011;63465;50.862;6.220;2023-01-28T14:36:42;27.17;;;13.50;;
74904;SDS011;63465;50.862;6.220;2023-01-28T14:39:14;26.67;;;13.43;;
74904;SDS011;63465;50.862;6.220;2023-01-28T14:41:44;26.90;;;13.60;;
74904;SDS011;63465;50.862;6.220;2023-01-28T14:46:50;26.37;;;14.47;;
74904;SDS011;63465;50.862;6.220;2023-01-28T14:49:38;22.40;;;12.13;;
74904;SDS011;63465;50.862;6.220;2023-01-28T14:52:29;28.17;;;12.90;;
74904;SDS011;63465;50.862;6.220;2023-01-28T14:55:22;25.07;;;12.73;;
74904;SDS011;63465;50.862;6.220;2023-01-28T14:57:58;24.40;;;11.87;;
74904;SDS011;63465;50.862;6.220;2023-01-28T15:00:29;25.10;;;12.67;;
74904;SDS011;63465;50.862;6.220;2023-01-28T15:02:58;23.07;;;12.50;;
74904;SDS011;63465;50.862;6.220;2023-01-28T15:05:25;19.73;;;11.57;;
74904;SDS011;63465;50.862;6.220;2023-01-28T15:07:54;23.93;;;12.10;;
74904;SDS011;63465;50.862;6.220;2023-01-28T15:10:23;22.93;;;12.63;;
74904;SDS011;63465;50.862;6.220;2023-01-28T15:12:53;22.17;;;12.17;;